»·PEaware :: ACA556 CYVR-KLAX

ACA556 :: CYVR-KLAX

FLIGHT INFORMATION

Flight Status: Arrived
Operator:
Air Canada
More flights by this operator :: More flights under this callsign
Pilot: Brandon B. (9237)
Aircraft: BOEING 777-300
(B773)
More flights by this aircraft type
Origin: CYVR Vancouver Intl
Canada
Destination: KLAX Los Angeles Intl
United States
More flights between these airports :: More routes between these airports
Route: YVR J5 SUMMA Q9 DERBB SADDE7
File this flight plan on PilotEdge
Remarks:
Altitude:
(Current/Filed)
37,000ft
Speed:
(Current/Filed)
444kts
Departed: 26-Dec-16 08:16 PM
Arrived: 26-Dec-16 10:33 PM
Distance/Time
Traveled:
939nm/2:16
Distance/Time
To Go:
Arrived

Flight Plot

Page will automatically refresh every two minutes.

Flight plan parsing failed; only flown route is shown


Map Options




Map Legend


Flown Route
Filed Route
Departure Airport
Arrival Airport
Navaid (VOR, NDB)
Fix

Horizontal Profiles

Position Reports

Time Latitude Longitude Heading Altitude Ground
Speed
26-Dec-16 19:43 49.198073 -123.176703 181 27ft 0kts
26-Dec-16 19:44 49.198073 -123.176703 181 27ft 0kts
26-Dec-16 19:45 49.198073 -123.176703 181 27ft 0kts
26-Dec-16 19:46 49.198073 -123.176703 181 27ft 0kts
26-Dec-16 19:47 49.198422 -123.176676 182 27ft 2kts
26-Dec-16 19:48 49.199027 -123.176631 182 27ft 0kts
26-Dec-16 19:49 49.199228 -123.176388 276 27ft 2kts
26-Dec-16 19:50 49.199189 -123.175977 279 27ft 0kts
26-Dec-16 19:51 49.199189 -123.175977 279 27ft 0kts
26-Dec-16 19:52 49.199189 -123.175977 279 27ft 0kts
26-Dec-16 19:53 49.199189 -123.175977 279 27ft 0kts
26-Dec-16 19:54 49.199189 -123.175977 279 27ft 0kts
26-Dec-16 19:55 49.199432 -123.177906 297 27ft 12kts
26-Dec-16 19:56 49.200260 -123.182831 279 27ft 9kts
26-Dec-16 19:57 49.200226 -123.185251 220 27ft 10kts
26-Dec-16 19:58 49.200160 -123.187116 279 27ft 0kts
26-Dec-16 19:59 49.201410 -123.187813 318 27ft 3kts
26-Dec-16 20:00 49.202302 -123.194491 280 27ft 13kts
26-Dec-16 20:01 49.202821 -123.198991 280 27ft 12kts
26-Dec-16 20:02 49.204135 -123.201230 10 27ft 0kts
26-Dec-16 20:03 49.204136 -123.201229 10 27ft 0kts
26-Dec-16 20:04 49.204138 -123.201228 10 27ft 0kts
26-Dec-16 20:05 49.204140 -123.201228 10 27ft 0kts
26-Dec-16 20:06 49.204142 -123.201227 10 27ft 0kts
26-Dec-16 20:07 49.205088 -123.200350 93 27ft 0kts
26-Dec-16 20:08 49.204069 -123.191221 98 28ft 118kts
26-Dec-16 20:09 49.174294 -123.145323 181 2294ft 219kts
26-Dec-16 20:10 49.108941 -123.151586 167 5525ft 223kts
26-Dec-16 20:11 49.046539 -123.127665 166 8335ft 250kts
26-Dec-16 20:12 48.975434 -123.093664 168 10801ft 292kts
26-Dec-16 20:13 48.888332 -123.049460 167 12869ft 362kts
26-Dec-16 20:14 48.788806 -122.997926 168 16051ft 388kts
26-Dec-16 20:15 48.683825 -122.942948 168 19105ft 408kts
26-Dec-16 20:16 48.574117 -122.885824 168 21851ft 424kts
26-Dec-16 20:17 48.460216 -122.827000 168 24361ft 439kts
26-Dec-16 20:17 48.362580 -122.776770 168 26235ft 451kts
26-Dec-16 20:18 48.241762 -122.714816 168 28229ft 464kts
26-Dec-16 20:19 48.117595 -122.651532 168 29897ft 475kts
26-Dec-16 20:20 47.991641 -122.587717 168 31537ft 478kts
26-Dec-16 20:21 47.864453 -122.523586 168 32914ft 483kts
26-Dec-16 20:22 47.736879 -122.459562 168 34276ft 484kts
26-Dec-16 20:23 47.608273 -122.395184 168 35289ft 489kts
26-Dec-16 20:24 47.478290 -122.330810 168 36216ft 494kts
26-Dec-16 20:25 47.346692 -122.272976 172 37063ft 495kts
26-Dec-16 20:26 47.213198 -122.221303 171 37060ft 496kts
26-Dec-16 20:27 47.079853 -122.168484 171 37041ft 496kts
26-Dec-16 20:28 46.946023 -122.116024 171 37047ft 497kts
26-Dec-16 20:29 46.812119 -122.063562 171 37059ft 497kts
26-Dec-16 20:30 46.677874 -122.011510 171 37074ft 498kts
26-Dec-16 20:31 46.543296 -121.967150 177 37103ft 490kts
26-Dec-16 20:33 46.407749 -121.937036 177 37142ft 493kts
26-Dec-16 20:34 46.272495 -121.904961 177 37181ft 494kts
26-Dec-16 20:35 46.136639 -121.872190 177 37214ft 495kts
26-Dec-16 20:36 46.000597 -121.839664 177 37255ft 494kts
26-Dec-16 20:37 45.864615 -121.807346 177 37280ft 494kts
26-Dec-16 20:38 45.728610 -121.775210 177 37294ft 494kts
26-Dec-16 20:39 45.592471 -121.743190 177 37297ft 495kts
26-Dec-16 20:40 45.456049 -121.711262 177 37298ft 496kts
26-Dec-16 20:41 45.319850 -121.679557 177 37297ft 497kts
26-Dec-16 20:42 45.182939 -121.647774 177 37288ft 498kts
26-Dec-16 20:43 45.045701 -121.616144 177 37282ft 499kts
26-Dec-16 20:44 44.908045 -121.584576 177 37272ft 501kts
26-Dec-16 20:45 44.769849 -121.552984 177 37265ft 503kts
26-Dec-16 20:46 44.631362 -121.521518 176 37248ft 504kts
26-Dec-16 20:47 44.492546 -121.490110 176 37234ft 505kts
26-Dec-16 20:48 44.353394 -121.458772 176 37229ft 505kts
26-Dec-16 20:49 44.214572 -121.427664 176 37227ft 506kts
26-Dec-16 20:50 44.075283 -121.396496 176 37230ft 505kts
26-Dec-16 20:51 43.935912 -121.365644 176 37234ft 507kts
26-Dec-16 20:52 43.795748 -121.334654 176 37239ft 509kts
26-Dec-16 20:53 43.655665 -121.303722 176 37250ft 509kts
26-Dec-16 20:54 43.516812 -121.273229 176 37264ft 510kts
26-Dec-16 20:55 43.376266 -121.242211 176 37279ft 510kts
26-Dec-16 20:56 43.235827 -121.211488 176 37299ft 510kts
26-Dec-16 20:57 43.095528 -121.180987 176 37278ft 511kts
26-Dec-16 20:58 42.954760 -121.150512 175 37294ft 512kts
26-Dec-16 20:59 42.813649 -121.120116 175 37321ft 512kts
26-Dec-16 21:00 42.672545 -121.089858 175 37328ft 513kts
26-Dec-16 21:01 42.531270 -121.059704 175 37334ft 513kts
26-Dec-16 21:02 42.389834 -121.029727 175 37339ft 513kts
26-Dec-16 21:03 42.248356 -120.999738 175 37340ft 514kts
26-Dec-16 21:04 42.106690 -120.969905 175 37350ft 513kts
26-Dec-16 21:05 41.965303 -120.940377 175 37341ft 516kts
26-Dec-16 21:06 41.822875 -120.910681 175 37339ft 517kts
26-Dec-16 21:07 41.680326 -120.881066 174 37337ft 518kts
26-Dec-16 21:08 41.540076 -120.852049 177 37341ft 499kts
26-Dec-16 21:09 41.402944 -120.823571 176 37348ft 502kts
26-Dec-16 21:10 41.262632 -120.794735 175 37346ft 513kts
26-Dec-16 21:11 41.121086 -120.765964 171 37357ft 510kts
26-Dec-16 21:12 40.978961 -120.736816 173 37369ft 520kts
26-Dec-16 21:13 40.838855 -120.702915 172 37400ft 497kts
26-Dec-16 21:14 40.703755 -120.670499 162 37407ft 498kts
26-Dec-16 21:14 40.587852 -120.642815 166 37413ft 516kts
26-Dec-16 21:16 40.421819 -120.603050 170 37435ft 514kts
26-Dec-16 21:16 40.305485 -120.575572 170 37445ft 505kts
26-Dec-16 21:17 40.167891 -120.542901 171 37419ft 501kts
26-Dec-16 21:18 40.028146 -120.510088 170 37402ft 519kts
26-Dec-16 21:19 39.885963 -120.476912 171 37394ft 514kts
26-Dec-16 21:20 39.747397 -120.444722 172 37391ft 492kts
26-Dec-16 21:21 39.610213 -120.412730 170 37370ft 508kts
26-Dec-16 21:22 39.470497 -120.380700 167 37396ft 507kts
26-Dec-16 21:23 39.330415 -120.348646 165 37383ft 511kts
26-Dec-16 21:24 39.192460 -120.316701 174 37373ft 495kts
26-Dec-16 21:25 39.056690 -120.286002 169 37376ft 496kts
26-Dec-16 21:26 38.918965 -120.254591 170 37381ft 501kts
26-Dec-16 21:27 38.781802 -120.223652 169 37375ft 495kts
26-Dec-16 21:28 38.646502 -120.193084 169 37379ft 496kts
26-Dec-16 21:29 38.512553 -120.163051 169 37379ft 499kts
26-Dec-16 21:30 38.375862 -120.132457 169 37382ft 496kts
26-Dec-16 21:31 38.241405 -120.102517 168 37388ft 499kts
26-Dec-16 21:33 38.116321 -120.074682 170 37428ft 483kts
26-Dec-16 21:34 38.051256 -120.060141 170 37418ft 488kts
26-Dec-16 21:35 37.942844 -120.036186 168 37393ft 506kts
26-Dec-16 21:36 37.811114 -120.007308 169 37429ft 508kts
26-Dec-16 21:37 37.678201 -119.978073 166 37424ft 476kts
26-Dec-16 21:38 37.546395 -119.949324 169 37418ft 492kts
26-Dec-16 21:39 37.409373 -119.919651 168 37405ft 495kts
26-Dec-16 21:41 37.256094 -119.886229 169 37439ft 485kts
26-Dec-16 21:42 37.125644 -119.857977 169 37426ft 491kts
26-Dec-16 21:43 36.991058 -119.828949 169 37421ft 488kts
26-Dec-16 21:44 36.857585 -119.800314 169 37424ft 487kts
26-Dec-16 21:45 36.723847 -119.771725 169 37437ft 486kts
26-Dec-16 21:46 36.592871 -119.743887 169 37435ft 486kts
26-Dec-16 21:47 36.459329 -119.715435 169 37421ft 485kts
26-Dec-16 21:48 36.326219 -119.687255 169 37412ft 486kts
26-Dec-16 21:49 36.192578 -119.658998 169 37410ft 486kts
26-Dec-16 21:50 36.058927 -119.630943 169 37408ft 486kts
26-Dec-16 21:51 35.924316 -119.613710 180 37396ft 486kts
26-Dec-16 21:52 35.789514 -119.621511 181 37399ft 485kts
26-Dec-16 21:53 35.654400 -119.626765 181 37388ft 483kts
26-Dec-16 21:54 35.519898 -119.631754 181 37380ft 481kts
26-Dec-16 21:55 35.386041 -119.636633 181 37375ft 479kts
26-Dec-16 21:56 35.253767 -119.634235 166 37360ft 476kts
26-Dec-16 21:57 35.142447 -119.548056 142 35661ft 478kts
26-Dec-16 21:58 35.035951 -119.453594 146 32949ft 467kts
26-Dec-16 21:59 34.929527 -119.363330 147 30437ft 459kts
26-Dec-16 22:00 34.826572 -119.275732 147 28123ft 444kts
26-Dec-16 22:01 34.726572 -119.191436 148 25891ft 428kts
26-Dec-16 22:02 34.629934 -119.110158 147 23594ft 417kts
26-Dec-16 22:03 34.535426 -119.030545 147 21171ft 408kts
26-Dec-16 22:04 34.443052 -118.953348 147 18818ft 397kts
26-Dec-16 22:05 34.352864 -118.883973 156 17552ft 358kts
26-Dec-16 22:06 34.260785 -118.845668 164 15314ft 344kts
26-Dec-16 22:07 34.172437 -118.813514 162 12214ft 319kts
26-Dec-16 22:08 34.089095 -118.782965 163 11694ft 313kts
26-Dec-16 22:09 34.038876 -118.711452 113 9874ft 282kts
26-Dec-16 22:10 34.025225 -118.624680 95 8787ft 264kts
26-Dec-16 22:11 34.017918 -118.537268 97 7862ft 258kts
26-Dec-16 22:12 34.011644 -118.450811 89 6861ft 259kts
26-Dec-16 22:13 34.019756 -118.363487 82 5441ft 264kts
26-Dec-16 22:14 34.027978 -118.279447 82 4110ft 249kts
26-Dec-16 22:15 34.036981 -118.196859 82 3993ft 248kts
26-Dec-16 22:16 34.046201 -118.115471 82 3983ft 225kts
26-Dec-16 22:17 34.043682 -118.044370 127 3992ft 218kts
26-Dec-16 22:18 33.988321 -118.049603 227 4009ft 227kts
26-Dec-16 22:19 33.977929 -118.121533 277 4012ft 229kts
26-Dec-16 22:20 33.972993 -118.198843 262 3089ft 218kts
26-Dec-16 22:20 33.967374 -118.252926 263 2457ft 178kts
26-Dec-16 22:21 33.961580 -118.309456 262 1622ft 158kts
26-Dec-16 22:22 33.956365 -118.360366 264 817ft 151kts
26-Dec-16 22:23 33.951225 -118.410456 263 140ft 135kts
26-Dec-16 22:24 33.948731 -118.426574 229 140ft 5kts
26-Dec-16 22:25 33.946349 -118.427153 98 140ft 7kts
26-Dec-16 22:26 33.946847 -118.421955 84 140ft 17kts
26-Dec-16 22:27 33.947342 -118.417206 82 140ft 11kts
26-Dec-16 22:28 33.947942 -118.412779 81 140ft 18kts
26-Dec-16 22:29 33.948442 -118.407900 82 140ft 9kts
26-Dec-16 22:30 33.948686 -118.403159 142 140ft 7kts
26-Dec-16 22:31 33.947300 -118.402679 172 140ft 8kts
26-Dec-16 22:32 33.946745 -118.403312 262 140ft 0kts
26-Dec-16 22:33 33.946745 -118.403312 262 140ft 0kts
26-Dec-16 22:34 33.946745 -118.403312 262 140ft 0kts
26-Dec-16 22:35 33.946745 -118.403312 262 140ft 0kts
26-Dec-16 22:36 33.946745 -118.403312 262 140ft 0kts
26-Dec-16 22:37 33.946745 -118.403312 262 140ft 0kts
26-Dec-16 22:38 33.946745 -118.403312 262 140ft 0kts

Navigation Log

Ident Type
Flight plan parsing failed, navigation log unavailable